Time;durP1;ratioP1;P1;durP2;ratioP2;P2;SDS_P1;SDS_P2;PMS_P1;PMS_P2;Temp;Humidity;BMP_temperature;BMP_pressure;BME280_temperature;BME280_humidity;BME280_pressure;Samples;Min_cycle;Max_cycle;Signal;HPM_P1;HPM_P2
2023/08/31 00:02:06;;;;;;;0.68;0.35;;;18.80;1.00;;;;;;6274951;22;19999;-78
2023/08/31 00:04:33;;;;;;;0.98;0.43;;;18.80;1.00;;;;;;6247764;22;20034;-78
2023/08/31 00:06:59;;;;;;;2.30;0.40;;;18.80;1.00;;;;;;6274646;22;20007;-78
2023/08/31 00:09:25;;;;;;;2.92;0.50;;;18.80;1.00;;;;;;6247552;22;20367;-78
2023/08/31 00:11:51;;;;;;;1.85;0.60;;;18.80;1.00;;;;;;6274741;22;19996;-78
2023/08/31 00:14:17;;;;;;;0.70;0.30;;;18.80;1.00;;;;;;6274873;22;20331;-78
2023/08/31 00:16:45;;;;;;;2.50;0.50;;;18.80;1.00;;;;;;6274534;22;20003;-78
2023/08/31 00:19:13;;;;;;;3.40;0.98;;;18.80;1.00;;;;;;6247621;22;20040;-78
2023/08/31 00:21:39;;;;;;;1.40;0.50;;;18.80;1.00;;;;;;6274781;22;20050;-78
2023/08/31 00:24:05;;;;;;;0.40;0.40;;;18.70;1.00;;;;;;6274850;22;19996;-78
2023/08/31 00:26:30;;;;;;;1.85;0.55;;;18.70;1.00;;;;;;6274462;22;20276;-78
2023/08/31 00:28:58;;;;;;;4.03;0.50;;;18.70;1.00;;;;;;6274868;22;20003;-78
2023/08/31 00:31:24;;;;;;;1.10;0.40;;;18.70;1.00;;;;;;6247718;22;20008;-79
2023/08/31 00:33:50;;;;;;;0.50;0.40;;;18.60;1.00;;;;;;6274634;22;20056;-78
2023/08/31 00:36:18;;;;;;;0.32;0.32;;;18.60;1.00;;;;;;6274560;22;20347;-78
2023/08/31 00:38:44;;;;;;;0.40;0.40;;;18.60;1.00;;;;;;6274581;22;20000;-78
2023/08/31 00:41:10;;;;;;;1.48;0.40;;;18.60;1.00;;;;;;6274505;22;20075;-78
2023/08/31 00:43:36;;;;;;;2.35;0.50;;;18.50;1.00;;;;;;6274523;22;20031;-78
2023/08/31 00:46:02;;;;;;;3.83;0.47;;;18.50;1.00;;;;;;6247266;22;20004;-78
2023/08/31 00:48:28;;;;;;;1.10;0.50;;;18.50;1.00;;;;;;6247285;22;20015;-78
2023/08/31 00:50:54;;;;;;;3.33;0.45;;;18.50;1.00;;;;;;6247239;22;20003;-78
2023/08/31 00:53:21;;;;;;;0.70;0.40;;;18.50;1.00;;;;;;6274529;22;20000;-78
2023/08/31 00:55:47;;;;;;;0.75;0.75;;;18.40;1.00;;;;;;6247187;22;20050;-78
2023/08/31 00:58:13;;;;;;;0.82;0.50;;;18.40;1.00;;;;;;6274271;22;20007;-78
2023/08/31 01:01:00;;;;;;;1.95;0.70;;;18.40;1.00;;;;;;6247518;22;20003;-78
2023/08/31 01:03:59;;;;;;;2.65;0.68;;;18.40;1.00;;;;;;6247206;22;20006;-79
2023/08/31 01:06:47;;;;;;;0.50;0.50;;;18.40;1.00;;;;;;6274285;22;20018;-79
2023/08/31 01:09:45;;;;;;;0.50;0.50;;;18.50;1.00;;;;;;6274489;22;20026;-78
2023/08/31 01:12:21;;;;;;;0.80;0.80;;;18.50;1.00;;;;;;6248465;22;20382;-78
2023/08/31 01:15:07;;;;;;;2.08;0.60;;;18.50;1.00;;;;;;6274191;22;20008;-78
2023/08/31 01:17:42;;;;;;;1.55;0.50;;;18.40;1.00;;;;;;6274019;22;20000;-78
2023/08/31 01:20:09;;;;;;;1.75;0.50;;;18.40;1.00;;;;;;6274046;22;20517;-78
2023/08/31 01:22:42;;;;;;;0.88;0.88;;;18.40;1.00;;;;;;6274416;22;20003;-79
2023/08/31 01:25:09;;;;;;;3.78;0.70;;;18.40;1.00;;;;;;6246996;22;20010;-78
2023/08/31 01:27:35;;;;;;;1.27;0.70;;;18.30;1.00;;;;;;6274353;22;20000;-78
2023/08/31 01:30:03;;;;;;;0.60;0.60;;;18.30;1.00;;;;;;6246885;22;20454;-78
2023/08/31 01:32:29;;;;;;;0.77;0.75;;;18.30;1.00;;;;;;6273858;22;20000;-78
2023/08/31 01:34:57;;;;;;;1.58;0.70;;;18.40;1.00;;;;;;6273996;22;20054;-78
2023/08/31 01:37:34;;;;;;;0.93;0.70;;;18.40;1.00;;;;;;6274426;22;20003;-78
2023/08/31 01:40:14;;;;;;;1.48;0.70;;;18.30;1.00;;;;;;6274236;22;20572;-78
2023/08/31 01:42:43;;;;;;;2.00;0.63;;;18.20;1.00;;;;;;6274457;22;20008;-78
2023/08/31 01:45:16;;;;;;;0.90;0.88;;;18.20;1.00;;;;;;6246761;22;20446;-78
2023/08/31 01:47:42;;;;;;;2.33;1.00;;;18.20;1.00;;;;;;6274391;22;20031;-79
2023/08/31 01:50:09;;;;;;;0.90;0.90;;;18.20;1.00;;;;;;6246975;22;20010;-78
2023/08/31 01:52:34;;;;;;;1.00;0.77;;;18.20;1.00;;;;;;6274225;22;20082;-78
2023/08/31 01:55:00;;;;;;;1.42;0.80;;;18.20;1.00;;;;;;6246959;22;20050;-78
2023/08/31 01:57:26;;;;;;;0.85;0.80;;;18.20;1.00;;;;;;6246966;22;20007;-78
2023/08/31 01:59:51;;;;;;;0.80;0.80;;;18.10;1.00;;;;;;6273994;22;20046;-78
2023/08/31 02:02:17;;;;;;;1.20;0.90;;;18.10;1.00;;;;;;6247029;22;20340;-78
2023/08/31 02:04:43;;;;;;;0.95;0.70;;;18.10;1.00;;;;;;6246537;22;20004;-78
2023/08/31 02:07:09;;;;;;;1.20;0.77;;;18.10;1.00;;;;;;6274198;22;20004;-78
2023/08/31 02:09:35;;;;;;;1.13;0.70;;;18.10;1.00;;;;;;6274308;22;20003;-78
2023/08/31 02:12:00;;;;;;;3.03;0.98;;;18.00;1.00;;;;;;6273957;22;19999;-78
2023/08/31 02:14:26;;;;;;;1.05;0.98;;;18.00;1.00;;;;;;6273970;22;20014;-78
2023/08/31 02:16:52;;;;;;;2.35;1.00;;;18.10;1.00;;;;;;6273839;22;20428;-78
2023/08/31 02:19:17;;;;;;;1.77;1.42;;;18.00;1.00;;;;;;6273915;22;20007;-78
2023/08/31 02:21:43;;;;;;;1.17;1.05;;;18.10;1.00;;;;;;6274108;22;20003;-78
2023/08/31 02:24:09;;;;;;;1.00;1.00;;;18.10;1.00;;;;;;6275744;22;20000;-78
2023/08/31 02:26:38;;;;;;;1.10;1.10;;;18.00;1.00;;;;;;6248544;22;20003;-78
2023/08/31 02:29:04;;;;;;;2.50;1.13;;;17.90;2.60;;;;;;6248675;22;20010;-78
2023/08/31 02:31:30;;;;;;;0.98;0.98;;;17.90;7.80;;;;;;6275940;22;20000;-78
2023/08/31 02:33:55;;;;;;;2.15;1.05;;;17.80;8.20;;;;;;6275788;22;20004;-78
2023/08/31 02:36:21;;;;;;;1.50;1.40;;;17.80;10.90;;;;;;6248488;22;20343;-78
2023/08/31 02:38:49;;;;;;;1.38;1.27;;;17.90;12.90;;;;;;6275642;22;20003;-78
2023/08/31 02:41:15;;;;;;;1.52;1.42;;;17.90;10.20;;;;;;6275689;22;20003;-78
2023/08/31 02:43:40;;;;;;;3.00;1.40;;;17.90;8.70;;;;;;6275587;22;20000;-79
2023/08/31 02:46:06;;;;;;;1.60;1.50;;;18.00;6.20;;;;;;6248487;22;20317;-78
2023/08/31 02:48:33;;;;;;;1.52;1.42;;;17.90;6.70;;;;;;6275474;22;20443;-78
2023/08/31 02:51:02;;;;;;;2.90;1.40;;;17.90;8.80;;;;;;6275641;22;20000;-79
2023/08/31 02:53:32;;;;;;;3.00;1.60;;;17.80;9.70;;;;;;6248539;22;20008;-78
2023/08/31 02:55:58;;;;;;;2.55;1.40;;;17.70;13.70;;;;;;6275578;22;20007;-79
2023/08/31 02:58:24;;;;;;;1.70;1.60;;;17.70;15.60;;;;;;6275336;22;20301;-78
2023/08/31 03:00:50;;;;;;;2.05;1.95;;;17.70;18.80;;;;;;6275420;22;20018;-78
2023/08/31 03:03:16;;;;;;;2.20;1.70;;;17.70;15.90;;;;;;6275652;22;20023;-78
2023/08/31 03:05:42;;;;;;;2.08;1.77;;;17.70;17.20;;;;;;6275207;22;20007;-78
2023/08/31 03:08:08;;;;;;;1.35;1.33;;;17.70;17.80;;;;;;6248121;22;20447;-78
2023/08/31 03:10:34;;;;;;;1.50;1.40;;;17.70;14.90;;;;;;6275611;22;20439;-78
2023/08/31 03:13:00;;;;;;;4.18;1.98;;;17.70;17.60;;;;;;6275393;22;20025;-78
2023/08/31 03:15:26;;;;;;;1.90;1.80;;;17.70;21.70;;;;;;6275030;22;20090;-79
2023/08/31 03:17:51;;;;;;;1.55;1.50;;;17.60;21.20;;;;;;6275471;22;20003;-78
2023/08/31 03:20:17;;;;;;;1.90;1.80;;;17.60;22.70;;;;;;6275107;22;20436;-78
2023/08/31 03:22:43;;;;;;;2.03;1.92;;;17.70;21.70;;;;;;6275204;22;20075;-78
2023/08/31 03:25:09;;;;;;;1.98;1.55;;;17.70;17.10;;;;;;6275009;22;20007;-78
2023/08/31 03:27:35;;;;;;;2.33;2.05;;;17.80;10.80;;;;;;6275159;22;20000;-79
2023/08/31 03:30:03;;;;;;;1.70;1.60;;;17.80;7.60;;;;;;6275243;22;20004;-78
2023/08/31 03:32:28;;;;;;;3.90;1.55;;;17.80;10.20;;;;;;6275398;22;20000;-78
2023/08/31 03:34:54;;;;;;;2.58;1.90;;;17.70;15.20;;;;;;6274579;22;20014;-78
2023/08/31 03:37:21;;;;;;;1.52;1.42;;;17.60;21.20;;;;;;6247982;22;19999;-78
2023/08/31 03:39:50;;;;;;;2.03;1.92;;;17.60;22.60;;;;;;6275232;22;20015;-78
2023/08/31 03:42:15;;;;;;;3.00;2.10;;;17.60;23.30;;;;;;6275240;22;20057;-78
2023/08/31 03:44:41;;;;;;;2.35;2.15;;;17.50;24.40;;;;;;6247798;22;20367;-78
2023/08/31 03:47:07;;;;;;;4.10;2.20;;;17.50;26.60;;;;;;6275046;22;20003;-78
2023/08/31 03:49:34;;;;;;;3.05;2.20;;;17.50;27.70;;;;;;6275125;22;20000;-78
2023/08/31 03:52:00;;;;;;;2.03;1.92;;;17.50;27.40;;;;;;6274812;22;20423;-78
2023/08/31 03:54:26;;;;;;;4.73;1.97;;;17.50;27.00;;;;;;6274713;22;19999;-78
2023/08/31 03:56:52;;;;;;;2.88;2.50;;;17.50;30.10;;;;;;6247906;22;20398;-79
2023/08/31 03:59:18;;;;;;;6.43;2.50;;;17.40;29.90;;;;;;6247759;22;20208;-78
2023/08/31 04:01:44;;;;;;;4.22;2.65;;;17.50;30.00;;;;;;6247741;22;20000;-79
2023/08/31 04:04:10;;;;;;;6.72;2.33;;;17.50;25.90;;;;;;6274934;22;20007;-79
2023/08/31 04:06:35;;;;;;;2.80;2.60;;;17.60;26.80;;;;;;6266855;22;20011;-78
2023/08/31 04:09:01;;;;;;;2.58;2.38;;;17.60;25.30;;;;;;6273247;22;20427;-78
2023/08/31 04:11:27;;;;;;;3.58;2.95;;;17.70;22.10;;;;;;6273397;22;20308;-78
2023/08/31 04:13:53;;;;;;;3.85;3.03;;;17.70;22.10;;;;;;6273118;22;20023;-78
2023/08/31 04:16:19;;;;;;;3.08;2.78;;;17.70;20.10;;;;;;6274241;22;20035;-78
2023/08/31 04:18:51;;;;;;;3.92;2.35;;;17.70;24.20;;;;;;6274849;22;20327;-78
2023/08/31 04:21:17;;;;;;;;;;;17.70;21.10;;;;;;6275467;22;20407;-78
2023/08/31 04:23:42;;;;;;;3.53;3.15;;;17.70;18.60;;;;;;6274777;22;19899;-78
2023/08/31 04:26:14;;;;;;;3.10;2.90;;;17.80;17.60;;;;;;6274677;22;20000;-78
2023/08/31 04:28:41;;;;;;;;;;;17.70;17.10;;;;;;6273576;22;20012;-78
2023/08/31 04:31:09;;;;;;;3.10;3.00;;;17.70;15.10;;;;;;6274779;22;19949;-78
2023/08/31 04:33:37;;;;;;;4.35;3.25;;;17.60;23.60;;;;;;6274722;22;20053;-78
2023/08/31 04:36:04;;;;;;;4.28;3.00;;;17.50;24.30;;;;;;6274600;22;20007;-79
2023/08/31 04:38:37;;;;;;;3.70;3.10;;;17.50;26.40;;;;;;6274750;22;20317;-78
2023/08/31 04:41:03;;;;;;;4.22;3.35;;;17.50;26.80;;;;;;6274154;22;20252;-78
2023/08/31 04:43:29;;;;;;;3.25;3.03;;;17.50;27.70;;;;;;6274582;22;19999;-79
2023/08/31 04:45:55;;;;;;;3.78;2.92;;;17.50;27.20;;;;;;6274032;22;20000;-78
2023/08/31 04:48:21;;;;;;;2.67;2.58;;;17.50;26.50;;;;;;6274210;22;20010;-78
2023/08/31 04:50:47;;;;;;;3.45;3.17;;;17.60;28.10;;;;;;6274319;22;20007;-78
2023/08/31 04:53:13;;;;;;;3.38;3.05;;;17.60;28.80;;;;;;6274191;22;20000;-78
2023/08/31 04:55:39;;;;;;;3.78;3.47;;;17.60;24.30;;;;;;6273958;22;20075;-78
2023/08/31 04:58:04;;;;;;;3.25;3.05;;;17.70;21.40;;;;;;6272638;22;19999;-78
2023/08/31 05:00:31;;;;;;;2.88;2.60;;;17.80;16.50;;;;;;6274497;22;20035;-78
2023/08/31 05:02:57;;;;;;;6.25;2.70;;;17.80;14.30;;;;;;6274273;22;19999;-78
2023/08/31 05:05:23;;;;;;;5.93;2.60;;;17.80;16.70;;;;;;6273388;22;20011;-78
2023/08/31 05:07:48;;;;;;;2.25;2.05;;;17.80;17.00;;;;;;6275715;22;20434;-78
2023/08/31 05:10:14;;;;;;;3.58;2.30;;;17.80;15.70;;;;;;6274370;22;20371;-79
2023/08/31 05:12:40;;;;;;;3.00;2.78;;;17.80;13.40;;;;;;6246809;22;20008;-78
2023/08/31 05:15:06;;;;;;;2.92;2.72;;;17.80;12.60;;;;;;6244917;22;20061;-76
2023/08/31 05:17:32;;;;;;;2.97;2.78;;;17.80;7.80;;;;;;6246507;22;20007;-77
2023/08/31 05:19:58;;;;;;;3.17;2.75;;;17.90;8.40;;;;;;6271411;22;20022;-76
2023/08/31 05:22:23;;;;;;;3.35;3.15;;;17.90;6.60;;;;;;6271978;22;20050;-77
2023/08/31 05:24:49;;;;;;;3.70;3.35;;;17.90;1.00;;;;;;6242258;22;20016;-77
2023/08/31 05:27:15;;;;;;;2.67;2.58;;;17.90;2.50;;;;;;6240902;22;20004;-76
2023/08/31 05:29:41;;;;;;;5.00;2.45;;;18.00;1.00;;;;;;6270129;22;20458;-76
2023/08/31 05:32:07;;;;;;;2.47;2.25;;;18.10;1.00;;;;;;6269885;22;20005;-76
2023/08/31 05:34:37;;;;;;;3.17;2.22;;;18.10;1.40;;;;;;6270482;22;20087;-76
2023/08/31 05:37:04;;;;;;;4.03;2.42;;;18.10;5.80;;;;;;6244939;22;20004;-76
2023/08/31 05:39:30;;;;;;;3.80;2.00;;;18.10;5.20;;;;;;6270897;22;20083;-76
2023/08/31 05:41:56;;;;;;;3.38;2.50;;;18.20;4.20;;;;;;6271707;22;20000;-76
2023/08/31 05:44:22;;;;;;;2.58;2.05;;;18.20;1.00;;;;;;6244747;22;20399;-76
2023/08/31 05:46:48;;;;;;;6.97;2.22;;;18.30;1.00;;;;;;6272136;22;20073;-76
2023/08/31 05:49:13;;;;;;;2.95;2.22;;;18.30;1.00;;;;;;6272636;22;20003;-76
2023/08/31 05:51:39;;;;;;;6.93;2.00;;;18.40;1.00;;;;;;6272667;22;20000;-76
2023/08/31 05:54:10;;;;;;;1.95;1.85;;;18.50;1.00;;;;;;6273470;22;20003;-76
2023/08/31 05:56:35;;;;;;;5.50;2.22;;;18.40;1.00;;;;;;6272239;22;20038;-76
2023/08/31 05:59:02;;;;;;;2.20;2.03;;;18.50;1.00;;;;;;6273636;22;19996;-76
2023/08/31 06:01:27;;;;;;;1.83;1.73;;;18.50;1.00;;;;;;6273823;22;20049;-76
2023/08/31 06:03:53;;;;;;;3.15;2.08;;;18.60;1.00;;;;;;6273605;22;19999;-76
2023/08/31 06:06:19;;;;;;;2.63;1.98;;;18.60;1.00;;;;;;6261832;22;20145;-76
2023/08/31 06:08:44;;;;;;;1.95;1.70;;;18.50;1.00;;;;;;6272187;22;20007;-77
2023/08/31 06:11:10;;;;;;;4.07;1.60;;;18.50;1.00;;;;;;6274209;22;20039;-76
2023/08/31 06:13:38;;;;;;;3.67;1.75;;;18.50;1.00;;;;;;6273951;22;20027;-76
2023/08/31 06:16:03;;;;;;;1.90;1.80;;;18.50;1.00;;;;;;6271962;22;20077;-76
2023/08/31 06:18:29;;;;;;;1.55;1.45;;;18.50;1.00;;;;;;6273714;22;20427;-76
2023/08/31 06:20:57;;;;;;;1.65;1.27;;;18.60;1.00;;;;;;6273506;22;20000;-76
2023/08/31 06:23:23;;;;;;;1.67;1.30;;;18.60;1.00;;;;;;6273302;22;19999;-76
2023/08/31 06:25:48;;;;;;;2.33;1.38;;;18.70;1.00;;;;;;6272501;22;20004;-76
2023/08/31 06:28:14;;;;;;;1.15;1.05;;;18.70;1.00;;;;;;6273705;22;20008;-76
2023/08/31 06:30:46;;;;;;;1.83;1.15;;;18.70;1.00;;;;;;6274234;22;20008;-76
2023/08/31 06:33:13;;;;;;;2.83;1.63;;;18.80;1.00;;;;;;6276089;22;20008;-76
2023/08/31 06:35:39;;;;;;;3.40;1.58;;;18.80;1.00;;;;;;6275745;22;20527;-76
2023/08/31 06:38:04;;;;;;;1.20;1.10;;;18.90;1.00;;;;;;6275937;22;20006;-76
2023/08/31 06:40:30;;;;;;;2.60;1.10;;;18.90;1.00;;;;;;6276276;22;20003;-77
2023/08/31 06:42:56;;;;;;;2.72;1.00;;;19.10;1.00;;;;;;6275020;22;19999;-76
2023/08/31 06:45:22;;;;;;;5.20;1.17;;;19.20;1.00;;;;;;6275739;22;20007;-76
2023/08/31 06:47:48;;;;;;;4.13;1.20;;;19.20;1.00;;;;;;6275865;22;20004;-76
2023/08/31 06:50:13;;;;;;;0.93;0.77;;;19.30;1.00;;;;;;6274328;22;20019;-76
2023/08/31 06:52:41;;;;;;;1.40;0.88;;;19.40;1.00;;;;;;6275909;22;20004;-76
2023/08/31 06:55:07;;;;;;;6.28;1.00;;;19.50;1.00;;;;;;6275506;22;20378;-76
2023/08/31 06:57:33;;;;;;;1.98;0.75;;;19.50;1.00;;;;;;6274122;22;20451;-76
2023/08/31 06:59:59;;;;;;;2.85;0.90;;;19.60;1.00;;;;;;6274013;22;20077;-77
2023/08/31 07:02:28;;;;;;;0.70;0.70;;;19.70;1.00;;;;;;6275738;22;20304;-77
2023/08/31 07:04:53;;;;;;;0.57;0.57;;;19.70;1.00;;;;;;6275652;22;20449;-77
2023/08/31 07:07:19;;;;;;;0.55;0.52;;;19.80;1.00;;;;;;6273706;22;20094;-77
2023/08/31 07:09:47;;;;;;;0.63;0.60;;;19.90;1.00;;;;;;6276726;22;20484;-77
2023/08/31 07:12:13;;;;;;;1.83;0.75;;;20.00;1.00;;;;;;6277302;22;20023;-77
2023/08/31 07:14:39;;;;;;;0.65;0.63;;;20.00;1.00;;;;;;6276821;22;20003;-77
2023/08/31 07:17:04;;;;;;;1.55;0.75;;;20.00;1.00;;;;;;6276853;22;19999;-76
2023/08/31 07:19:30;;;;;;;1.08;0.68;;;20.10;1.00;;;;;;6277363;22;20000;-77
2023/08/31 07:21:56;;;;;;;0.90;0.80;;;20.10;1.00;;;;;;6277010;22;20293;-76
2023/08/31 07:24:23;;;;;;;1.83;0.95;;;20.10;1.00;;;;;;6276967;22;20049;-77
2023/08/31 07:26:49;;;;;;;0.95;0.90;;;20.10;1.00;;;;;;6275984;22;20004;-76
2023/08/31 07:29:15;;;;;;;0.70;0.70;;;20.10;1.00;;;;;;6271540;22;20396;-77
2023/08/31 07:31:41;;;;;;;1.30;1.02;;;20.20;1.00;;;;;;6271526;22;20027;-76
2023/08/31 07:34:07;;;;;;;2.05;0.60;;;20.20;1.00;;;;;;6272838;22;20007;-78
2023/08/31 07:36:33;;;;;;;1.88;1.00;;;20.20;1.00;;;;;;6273085;22;20032;-78
2023/08/31 07:38:59;;;;;;;2.58;1.35;;;20.20;1.00;;;;;;6272793;22;20425;-78
2023/08/31 07:41:25;;;;;;;2.30;0.80;;;20.20;1.00;;;;;;6273149;22;20011;-78
2023/08/31 07:43:51;;;;;;;3.13;1.42;;;20.20;1.00;;;;;;6273021;22;19996;-78
2023/08/31 07:46:18;;;;;;;2.08;1.38;;;20.20;1.00;;;;;;6274307;22;20004;-78
2023/08/31 07:48:44;;;;;;;5.88;1.35;;;20.30;1.00;;;;;;6274542;22;20003;-78
2023/08/31 07:51:10;;;;;;;2.03;1.38;;;20.30;1.00;;;;;;6272784;22;20065;-78
2023/08/31 07:53:35;;;;;;;1.65;1.55;;;20.30;1.00;;;;;;6273071;22;20011;-78
2023/08/31 07:56:01;;;;;;;7.90;1.75;;;20.30;1.00;;;;;;6274931;22;20046;-78
2023/08/31 07:58:27;;;;;;;2.83;2.00;;;20.40;1.00;;;;;;6275175;22;20004;-78
2023/08/31 08:00:57;;;;;;;2.22;1.90;;;20.40;1.00;;;;;;6274954;22;20331;-78
2023/08/31 08:03:23;;;;;;;4.78;2.20;;;20.40;1.00;;;;;;6275222;22;20322;-78
2023/08/31 08:05:49;;;;;;;10.13;2.58;;;20.50;1.00;;;;;;6274615;22;20190;-78
2023/08/31 08:08:15;;;;;;;2.95;1.90;;;20.40;1.00;;;;;;6275107;22;20004;-78
2023/08/31 08:10:41;;;;;;;3.63;2.58;;;20.40;1.00;;;;;;6274914;22;20163;-78
2023/08/31 08:13:06;;;;;;;3.35;2.03;;;20.40;1.00;;;;;;6274947;22;20007;-78
2023/08/31 08:15:32;;;;;;;6.90;2.72;;;20.40;1.00;;;;;;6274631;22;20427;-78
2023/08/31 08:17:58;;;;;;;2.00;1.90;;;20.50;1.00;;;;;;6248026;22;20122;-78
2023/08/31 08:20:24;;;;;;;4.50;2.22;;;20.50;1.00;;;;;;6247585;22;20000;-78
2023/08/31 08:22:52;;;;;;;3.67;2.78;;;20.50;1.00;;;;;;6274714;22;20038;-78
2023/08/31 08:25:20;;;;;;;4.30;2.30;;;20.50;1.00;;;;;;6274743;22;20475;-78
2023/08/31 08:27:46;;;;;;;3.63;2.60;;;20.60;1.00;;;;;;6275344;22;19999;-78
2023/08/31 08:30:12;;;;;;;2.97;2.50;;;20.60;1.00;;;;;;6275402;22;20007;-78
2023/08/31 08:32:38;;;;;;;4.05;2.88;;;20.60;1.00;;;;;;6275345;22;20011;-78
2023/08/31 08:35:04;;;;;;;4.95;3.33;;;20.50;1.00;;;;;;6275226;22;19999;-78
2023/08/31 08:37:34;;;;;;;5.93;2.85;;;20.50;1.00;;;;;;6248003;22;20007;-78
2023/08/31 08:40:01;;;;;;;6.80;3.00;;;20.50;1.00;;;;;;6275329;22;19999;-78
2023/08/31 08:42:31;;;;;;;2.60;2.25;;;20.60;1.00;;;;;;6248098;22;20036;-78
2023/08/31 08:44:57;;;;;;;2.40;2.20;;;20.70;1.00;;;;;;6275420;22;20034;-78
2023/08/31 08:47:27;;;;;;;2.78;2.00;;;20.70;1.00;;;;;;6248742;22;20003;-78
2023/08/31 08:49:55;;;;;;;2.45;1.60;;;20.70;1.00;;;;;;6248784;22;20012;-78
2023/08/31 08:52:21;;;;;;;4.57;2.53;;;20.80;99.90;;;;;;6275389;22;20443;-77
2023/08/31 08:54:50;;;;;;;4.50;2.38;;;20.70;1.00;;;;;;6274846;22;20008;-78
2023/08/31 08:57:15;;;;;;;5.13;3.00;;;20.70;1.00;;;;;;6274956;22;20006;-78
2023/08/31 08:59:41;;;;;;;9.73;3.60;;;20.70;1.00;;;;;;6274821;22;20071;-78
2023/08/31 09:02:12;;;;;;;5.38;3.35;;;20.80;1.00;;;;;;6275021;22;19995;-78
2023/08/31 09:04:37;;;;;;;3.13;2.90;;;20.80;1.00;;;;;;6274614;22;20003;-78
2023/08/31 09:07:03;;;;;;;2.00;1.90;;;20.70;1.00;;;;;;6269501;22;20011;-78
2023/08/31 09:09:29;;;;;;;4.55;2.75;;;20.90;1.00;;;;;;6274711;22;19996;-77
2023/08/31 09:11:58;;;;;;;2.50;2.30;;;21.00;1.00;;;;;;6274871;22;19999;-78
2023/08/31 09:14:24;;;;;;;6.30;2.40;;;21.10;1.00;;;;;;6274629;22;20046;-78
2023/08/31 09:16:52;;;;;;;3.17;2.15;;;21.00;99.90;;;;;;6272898;22;20011;-78
2023/08/31 09:19:22;;;;;;;2.85;1.58;;;21.00;99.90;;;;;;6273019;22;20655;-78
2023/08/31 09:21:49;;;;;;;6.32;1.70;;;21.10;99.90;;;;;;6274804;22;20023;-78
2023/08/31 09:24:17;;;;;;;2.55;1.67;;;21.10;99.90;;;;;;6274494;22;20374;-78
2023/08/31 09:26:55;;;;;;;1.08;1.00;;;21.20;99.90;;;;;;6274613;22;20065;-78
2023/08/31 09:29:21;;;;;;;2.10;1.30;;;21.30;99.90;;;;;;6272879;22;20450;-78
2023/08/31 09:31:47;;;;;;;3.00;1.50;;;21.30;99.90;;;;;;6273938;22;20003;-78
2023/08/31 09:34:17;;;;;;;3.13;1.35;;;21.30;99.90;;;;;;6276267;22;20043;-78
2023/08/31 09:36:43;;;;;;;2.05;1.40;;;21.30;99.90;;;;;;6275319;22;20095;-78
2023/08/31 09:39:10;;;;;;;4.15;1.20;;;21.40;99.90;;;;;;6276746;22;19996;-78
2023/08/31 09:41:51;;;;;;;1.55;1.45;;;21.40;99.90;;;;;;6275182;22;20025;-78
2023/08/31 09:44:19;;;;;;;2.22;1.45;;;21.50;99.90;;;;;;6276371;22;20052;-78
2023/08/31 09:46:46;;;;;;;2.35;1.30;;;21.60;99.90;;;;;;6276530;22;20075;-78
2023/08/31 09:49:17;;;;;;;1.67;1.30;;;21.60;99.90;;;;;;6276466;22;20057;-78
2023/08/31 09:51:49;;;;;;;1.50;1.27;;;21.60;99.90;;;;;;6276576;22;19999;-78
2023/08/31 09:57:05;;;;;;;3.72;1.60;;;21.80;99.90;;;;;;6276456;22;20064;-78
2023/08/31 09:59:31;;;;;;;2.58;1.10;;;21.80;99.90;;;;;;6276262;22;20042;-77
2023/08/31 10:01:58;;;;;;;1.50;1.40;;;21.90;99.90;;;;;;6276511;22;20003;-78
2023/08/31 10:04:24;;;;;;;4.10;1.30;;;21.90;99.90;;;;;;6276093;22;20050;-78
2023/08/31 10:06:50;;;;;;;2.55;1.00;;;21.90;99.90;;;;;;6274628;22;20012;-78
2023/08/31 10:09:17;;;;;;;1.55;0.90;;;22.00;99.90;;;;;;6276169;22;20027;-78
2023/08/31 10:11:43;;;;;;;1.58;0.90;;;22.00;99.90;;;;;;6276465;22;20050;-78
2023/08/31 10:14:13;;;;;;;5.47;1.27;;;22.10;99.90;;;;;;6276116;22;20004;-78
2023/08/31 10:16:44;;;;;;;2.85;1.67;;;22.10;99.90;;;;;;6274603;22;20044;-78
2023/08/31 10:19:10;;;;;;;1.60;1.50;;;22.10;99.90;;;;;;6276365;22;19996;-78
2023/08/31 10:21:35;;;;;;;1.58;1.45;;;22.20;99.90;;;;;;6274621;22;20010;-78
2023/08/31 10:24:01;;;;;;;2.13;1.67;;;22.20;99.90;;;;;;6276245;22;20074;-78
2023/08/31 10:26:29;;;;;;;2.30;1.45;;;22.20;99.90;;;;;;6276137;22;20004;-78
2023/08/31 10:28:56;;;;;;;2.53;1.73;;;22.30;99.90;;;;;;6275904;22;20271;-78
2023/08/31 10:31:23;;;;;;;2.00;1.75;;;22.30;1.00;;;;;;6274513;22;20039;-78
2023/08/31 10:34:09;;;;;;;10.30;2.65;;;22.30;1.00;;;;;;6275886;22;19995;-78
2023/08/31 10:36:41;;;;;;;2.40;2.20;;;22.30;11.00;;;;;;6275917;22;20000;-78
2023/08/31 10:39:19;;;;;;;4.63;2.63;;;22.40;99.90;;;;;;6276075;22;20055;-78
2023/08/31 10:41:56;;;;;;;2.20;2.10;;;22.50;99.90;;;;;;6275940;22;19995;-78
2023/08/31 10:44:23;;;;;;;2.00;1.90;;;22.50;99.90;;;;;;6273647;22;20089;-78
2023/08/31 10:46:49;;;;;;;4.35;2.40;;;22.70;99.90;;;;;;6276063;22;20000;-78
2023/08/31 10:49:19;;;;;;;3.03;2.70;;;22.70;59.50;;;;;;6275605;22;20432;-78
2023/08/31 10:51:48;;;;;;;2.60;2.50;;;22.80;1.00;;;;;;6275952;22;20049;-78
2023/08/31 10:54:34;;;;;;;3.00;2.80;;;22.80;1.00;;;;;;6274383;22;20003;-78
2023/08/31 10:57:10;;;;;;;3.17;2.88;;;22.80;1.00;;;;;;6275768;22;20079;-78
2023/08/31 10:59:42;;;;;;;4.32;3.00;;;22.80;1.00;;;;;;6274265;22;20531;-78
2023/08/31 11:02:08;;;;;;;3.47;3.17;;;22.80;1.00;;;;;;6275723;22;19996;-78
2023/08/31 11:05:00;;;;;;;2.45;1.75;;;22.90;1.00;;;;;;6275834;22;20000;-78
2023/08/31 11:07:28;;;;;;;2.33;2.15;;;23.00;56.10;;;;;;6275874;22;20084;-78
2023/08/31 11:10:09;;;;;;;2.05;1.63;;;23.20;84.80;;;;;;6273819;22;20043;-78
2023/08/31 11:12:34;;;;;;;1.85;1.75;;;23.20;1.00;;;;;;6275808;22;20063;-78
2023/08/31 11:15:00;;;;;;;1.88;1.77;;;23.20;1.00;;;;;;6273707;22;20066;-78
2023/08/31 11:17:28;;;;;;;6.03;1.80;;;23.20;99.90;;;;;;6275721;22;20076;-78
2023/08/31 11:19:54;;;;;;;3.80;2.72;;;23.20;99.90;;;;;;6275539;22;20000;-78
2023/08/31 11:22:19;;;;;;;2.25;1.90;;;23.30;99.90;;;;;;6275548;22;20066;-78
2023/08/31 11:24:46;;;;;;;2.42;1.95;;;23.30;99.90;;;;;;6275213;22;20363;-78
2023/08/31 11:27:12;;;;;;;4.00;1.58;;;23.40;99.90;;;;;;6275526;22;20239;-78
2023/08/31 11:29:43;;;;;;;4.45;2.22;;;23.60;1.00;;;;;;6275599;22;20003;-78
2023/08/31 11:32:08;;;;;;;2.78;2.47;;;23.70;99.90;;;;;;6273764;22;20031;-78
2023/08/31 11:34:36;;;;;;;2.42;1.75;;;23.60;99.90;;;;;;6275395;22;19996;-78
2023/08/31 11:37:03;;;;;;;3.33;1.70;;;23.70;99.90;;;;;;6275271;22;20081;-78
2023/08/31 11:39:28;;;;;;;6.90;2.00;;;23.80;14.90;;;;;;6275370;22;19996;-78
2023/08/31 11:41:55;;;;;;;1.95;1.85;;;23.90;22.30;;;;;;6273069;22;20054;-78
2023/08/31 11:44:21;;;;;;;2.58;1.63;;;23.80;1.00;;;;;;6275213;22;20004;-78
2023/08/31 11:46:50;;;;;;;1.75;1.65;;;23.80;1.00;;;;;;6275398;22;20007;-78
2023/08/31 11:49:19;;;;;;;1.58;1.48;;;23.80;24.70;;;;;;6275345;22;20000;-77
2023/08/31 11:51:46;;;;;;;2.80;1.90;;;24.00;65.50;;;;;;6275281;22;20336;-77
2023/08/31 11:54:12;;;;;;;5.20;2.72;;;24.20;99.90;;;;;;6274929;22;20027;-77
2023/08/31 11:56:47;;;;;;;2.17;1.98;;;24.40;1.00;;;;;;6274822;22;20011;-78
2023/08/31 11:59:16;;;;;;;4.30;2.10;;;24.50;80.70;;;;;;6273628;22;20023;-78
2023/08/31 12:01:50;;;;;;;4.82;2.08;;;24.60;99.90;;;;;;6274921;22;20013;-78
2023/08/31 12:04:15;;;;;;;2.47;2.10;;;24.80;99.90;;;;;;6274874;22;19999;-78
2023/08/31 12:06:45;;;;;;;2.95;2.05;;;24.70;99.90;;;;;;6274929;22;20003;-78
2023/08/31 12:09:11;;;;;;;2.63;2.10;;;24.80;99.90;;;;;;6247705;22;20007;-78
2023/08/31 12:11:37;;;;;;;3.92;2.75;;;24.70;88.10;;;;;;6275110;22;20328;-78
2023/08/31 12:14:17;;;;;;;3.92;2.10;;;24.60;99.90;;;;;;6274760;22;20011;-78
2023/08/31 12:16:44;;;;;;;8.15;3.05;;;24.70;99.90;;;;;;6274841;22;20343;-78
2023/08/31 12:19:10;;;;;;;3.78;3.35;;;24.80;99.90;;;;;;6247657;22;20004;-78
2023/08/31 12:21:36;;;;;;;6.45;3.88;;;24.90;99.90;;;;;;6247874;22;20321;-78
2023/08/31 12:24:03;;;;;;;7.57;3.97;;;24.80;96.10;;;;;;6274631;22;20424;-78
2023/08/31 12:26:29;;;;;;;4.40;3.20;;;24.80;88.10;;;;;;6274895;22;20007;-78
2023/08/31 12:28:55;;;;;;;4.75;3.03;;;24.80;99.90;;;;;;6274891;22;20000;-78
2023/08/31 12:31:22;;;;;;;6.18;3.00;;;24.70;99.90;;;;;;6245708;22;20012;-78
2023/08/31 12:33:48;;;;;;;4.78;2.47;;;24.70;99.90;;;;;;6242961;22;20330;-78
2023/08/31 12:36:14;;;;;;;4.70;2.92;;;24.80;99.90;;;;;;6268593;22;20027;-78
2023/08/31 12:38:40;;;;;;;3.70;2.40;;;24.80;95.00;;;;;;6269135;22;20023;-78
2023/08/31 12:41:06;;;;;;;3.53;2.17;;;25.00;99.90;;;;;;6270206;22;20003;-78
2023/08/31 12:43:31;;;;;;;2.75;2.40;;;25.10;99.90;;;;;;6268808;22;20008;-78
2023/08/31 12:45:57;;;;;;;3.50;1.92;;;25.30;99.90;;;;;;6269466;22;20007;-78
2023/08/31 12:48:23;;;;;;;8.88;2.63;;;25.50;99.90;;;;;;6269540;22;20089;-78
2023/08/31 12:50:49;;;;;;;2.70;2.13;;;25.60;67.20;;;;;;6268939;22;20374;-78
2023/08/31 12:53:15;;;;;;;4.68;2.60;;;25.60;49.40;;;;;;6270064;22;20053;-78
2023/08/31 12:55:41;;;;;;;2.08;1.60;;;25.60;15.70;;;;;;6241250;22;20003;-78
2023/08/31 12:58:08;;;;;;;7.72;2.20;;;25.50;49.10;;;;;;6269122;22;20000;-78